createdAt,value
2024-02-08T00:01:22.546Z,57.70
2024-02-08T00:03:53.730Z,57.59
2024-02-08T00:06:21.037Z,57.37
2024-02-08T00:08:48.484Z,58.20
2024-02-08T00:11:16.054Z,58.53
2024-02-08T00:13:43.356Z,57.84
2024-02-08T00:16:12.862Z,57.88
2024-02-08T00:18:40.615Z,57.80
2024-02-08T00:21:10.735Z,57.83
2024-02-08T00:23:41.091Z,57.68
2024-02-08T00:26:08.729Z,57.94
2024-02-08T00:28:36.342Z,57.65
2024-02-08T00:31:07.970Z,57.59
2024-02-08T00:33:35.556Z,57.44
2024-02-08T00:36:03.617Z,57.44
2024-02-08T00:38:31.149Z,57.54
2024-02-08T00:40:58.567Z,57.80
2024-02-08T00:43:26.985Z,57.53
2024-02-08T00:45:55.738Z,57.53
2024-02-08T00:48:23.769Z,57.83
2024-02-08T00:50:51.323Z,57.67
2024-02-08T00:53:20.499Z,57.57
2024-02-08T00:55:48.029Z,57.28
2024-02-08T00:58:17.274Z,57.38
2024-02-08T01:00:45.318Z,57.69
2024-02-08T01:03:15.165Z,58.11
2024-02-08T01:05:43.702Z,58.26
2024-02-08T01:08:11.536Z,58.08
2024-02-08T01:10:39.099Z,57.80
2024-02-08T01:13:06.605Z,57.88
2024-02-08T01:15:34.639Z,57.89
2024-02-08T01:18:05.125Z,57.92
2024-02-08T01:20:33.512Z,57.69
2024-02-08T01:23:01.491Z,57.21
2024-02-08T01:25:28.821Z,57.37
2024-02-08T01:27:57.065Z,57.03
2024-02-08T01:30:26.113Z,57.26
2024-02-08T01:32:54.540Z,57.30
2024-02-08T01:35:27.823Z,56.99
2024-02-08T01:37:55.356Z,57.16
2024-02-08T01:40:24.062Z,57.16
2024-02-08T01:42:59.034Z,56.95
2024-02-08T01:45:39.205Z,57.15
2024-02-08T01:48:12.372Z,56.41
2024-02-08T01:50:43.952Z,56.87
2024-02-08T01:53:15.962Z,56.71
2024-02-08T01:55:51.992Z,56.62
2024-02-08T01:58:21.823Z,56.69
2024-02-08T02:00:52.244Z,56.71
2024-02-08T02:03:21.410Z,56.18
2024-02-08T02:05:49.100Z,56.58
2024-02-08T02:08:23.090Z,56.62
2024-02-08T02:11:26.060Z,56.92
2024-02-08T02:13:55.774Z,56.77
2024-02-08T02:16:24.955Z,56.87
2024-02-08T02:18:52.578Z,56.76
2024-02-08T02:21:22.176Z,56.75
2024-02-08T02:23:50.215Z,57.11
2024-02-08T02:26:20.263Z,57.13
2024-02-08T02:28:49.240Z,57.02
2024-02-08T02:31:18.240Z,56.89
2024-02-08T02:33:47.916Z,57.34
2024-02-08T02:36:16.055Z,57.73
2024-02-08T02:38:44.314Z,57.57
2024-02-08T02:41:12.085Z,58.13
2024-02-08T02:43:41.136Z,57.95
2024-02-08T02:46:08.947Z,58.24
2024-02-08T02:48:36.829Z,58.44
2024-02-08T02:51:04.971Z,58.65
2024-02-08T02:53:32.357Z,58.92
2024-02-08T02:56:00.464Z,59.31
2024-02-08T02:58:28.388Z,59.32
2024-02-08T03:01:06.634Z,59.14
2024-02-08T03:03:39.470Z,59.50
2024-02-08T03:06:17.151Z,59.36
2024-02-08T03:08:47.105Z,59.12
2024-02-08T03:11:15.507Z,59.53
2024-02-08T03:13:45.485Z,59.64
2024-02-08T03:16:16.483Z,59.18
2024-02-08T03:18:45.403Z,59.56
2024-02-08T03:21:19.834Z,59.49
2024-02-08T03:23:51.541Z,60.09
2024-02-08T03:26:21.633Z,59.83
2024-02-08T03:28:53.269Z,59.70
2024-02-08T03:31:20.933Z,59.78
2024-02-08T03:33:48.433Z,59.87
2024-02-08T03:36:16.031Z,59.84
2024-02-08T03:38:45.596Z,59.99
2024-02-08T03:41:13.733Z,59.66
2024-02-08T03:43:41.227Z,59.84
2024-02-08T03:46:09.536Z,59.65
2024-02-08T03:48:38.333Z,59.71
2024-02-08T03:51:06.129Z,59.75
2024-02-08T03:53:38.530Z,59.57
2024-02-08T03:56:08.004Z,59.81
2024-02-08T03:58:38.022Z,59.63
2024-02-08T04:01:10.410Z,59.22
2024-02-08T04:03:55.390Z,59.44
2024-02-08T04:06:43.498Z,59.15
2024-02-08T04:09:18.172Z,59.17
2024-02-08T04:12:04.257Z,59.14
2024-02-08T04:14:50.477Z,59.23
2024-02-08T04:17:36.194Z,59.21
2024-02-08T04:20:22.375Z,59.35
2024-02-08T04:23:08.317Z,59.22
2024-02-08T04:25:54.453Z,59.62
2024-02-08T04:28:40.281Z,59.43
2024-02-08T04:31:29.148Z,59.07
2024-02-08T04:34:16.274Z,59.24
2024-02-08T04:37:02.591Z,59.01
2024-02-08T04:39:48.474Z,58.87
2024-02-08T04:42:35.097Z,59.25
2024-02-08T04:45:21.365Z,59.40
2024-02-08T04:48:07.183Z,59.01
2024-02-08T04:50:52.922Z,59.23
2024-02-08T04:53:39.196Z,59.35
2024-02-08T04:56:12.802Z,60.09
2024-02-08T05:01:13.302Z,60.38
2024-02-08T05:03:45.275Z,60.73
2024-02-08T05:06:20.409Z,60.82
2024-02-08T05:08:49.225Z,61.22
2024-02-08T05:11:18.170Z,61.08
2024-02-08T05:13:53.227Z,61.41
2024-02-08T05:16:21.425Z,61.54
2024-02-08T05:18:50.372Z,62.55
2024-02-08T05:21:19.253Z,62.76
2024-02-08T05:23:49.394Z,63.17
2024-02-08T05:26:21.096Z,62.82
2024-02-08T05:28:49.963Z,63.01
2024-02-08T05:31:18.257Z,62.52
2024-02-08T05:33:47.296Z,62.84
2024-02-08T05:36:19.035Z,63.51
2024-02-08T05:38:47.702Z,63.36
2024-02-08T05:41:18.907Z,62.86
2024-02-08T05:43:47.327Z,63.42
2024-02-08T05:46:31.849Z,63.44
2024-02-08T05:49:06.542Z,63.56
2024-02-08T05:51:36.019Z,63.31
2024-02-08T05:54:03.964Z,63.85
2024-02-08T05:56:32.128Z,63.81
2024-02-08T05:59:07.097Z,63.61
2024-02-08T06:01:45.975Z,63.64
2024-02-08T06:04:14.098Z,63.80
2024-02-08T06:07:08.613Z,63.94
2024-02-08T06:09:47.227Z,65.02
2024-02-08T06:12:25.728Z,64.39
2024-02-08T06:15:00.427Z,64.85
2024-02-08T06:17:33.958Z,65.30
2024-02-08T06:20:02.061Z,65.02
2024-02-08T06:22:30.795Z,64.33
2024-02-08T06:25:10.343Z,64.12
2024-02-08T06:27:38.675Z,64.27
2024-02-08T06:30:10.854Z,64.37
2024-02-08T06:32:47.592Z,64.25
2024-02-08T06:35:21.364Z,64.47
2024-02-08T06:38:04.193Z,64.66
2024-02-08T06:40:50.714Z,65.20
2024-02-08T06:43:21.618Z,64.53
2024-02-08T06:45:50.018Z,64.42
2024-02-08T06:48:18.317Z,64.94
2024-02-08T06:51:04.419Z,65.21
2024-02-08T06:54:10.308Z,64.44
2024-02-08T06:56:58.724Z,64.24
2024-02-08T06:59:44.489Z,63.88
2024-02-08T07:02:30.414Z,63.46
2024-02-08T07:05:16.326Z,63.76
2024-02-08T07:08:02.194Z,63.49
2024-02-08T07:10:48.168Z,63.60
2024-02-08T07:13:34.036Z,63.52
2024-02-08T07:16:19.774Z,63.88
2024-02-08T07:19:07.803Z,64.19
2024-02-08T07:21:56.518Z,63.75
2024-02-08T07:24:43.197Z,63.17
2024-02-08T07:27:29.172Z,62.81
2024-02-08T07:30:16.029Z,63.56
2024-02-08T07:33:02.053Z,62.25
2024-02-08T07:35:48.114Z,61.72
2024-02-08T07:38:16.155Z,60.97
2024-02-08T07:40:45.326Z,61.19
2024-02-08T07:43:16.372Z,60.72
2024-02-08T07:45:47.859Z,60.29
2024-02-08T07:48:37.278Z,59.70
2024-02-08T07:51:05.963Z,59.62
2024-02-08T07:53:37.142Z,60.03
2024-02-08T07:56:23.803Z,58.66
2024-02-08T07:58:51.219Z,58.52
2024-02-08T08:01:22.108Z,57.48
2024-02-08T08:03:58.463Z,57.35
2024-02-08T08:06:27.515Z,56.56
2024-02-08T08:09:02.733Z,56.55
2024-02-08T08:11:32.660Z,55.78
2024-02-08T08:14:00.517Z,55.56
2024-02-08T08:16:32.074Z,54.19
2024-02-08T08:19:10.403Z,53.74
2024-02-08T08:21:59.532Z,53.66
2024-02-08T08:24:28.388Z,53.19
2024-02-08T08:27:27.942Z,52.44
2024-02-08T08:30:00.198Z,51.94
2024-02-08T08:32:34.179Z,51.54
2024-02-08T08:35:25.706Z,50.59
2024-02-08T08:38:20.223Z,50.48
2024-02-08T08:41:13.125Z,49.72
2024-02-08T08:43:48.382Z,49.95
2024-02-08T08:46:20.385Z,49.09
2024-02-08T08:48:53.036Z,49.26
2024-02-08T08:51:32.435Z,48.70
2024-02-08T08:54:15.798Z,48.30
2024-02-08T08:56:45.924Z,48.50
2024-02-08T08:59:13.730Z,48.71
2024-02-08T09:01:42.444Z,48.86
2024-02-08T09:04:12.163Z,48.89
2024-02-08T09:06:43.548Z,48.68
2024-02-08T09:09:29.968Z,48.93
2024-02-08T09:12:00.226Z,48.62
2024-02-08T09:14:34.030Z,48.11
2024-02-08T09:17:24.017Z,48.08
2024-02-08T09:19:52.462Z,47.47
2024-02-08T09:22:21.284Z,47.16
2024-02-08T09:24:50.443Z,46.47
2024-02-08T09:27:20.523Z,46.30
2024-02-08T09:30:10.147Z,45.83
2024-02-08T09:32:47.061Z,45.45
2024-02-08T09:35:15.430Z,45.36
2024-02-08T09:37:47.317Z,44.93
2024-02-08T09:40:31.772Z,44.96
2024-02-08T09:43:02.248Z,44.50
2024-02-08T09:45:35.885Z,44.94
2024-02-08T09:48:12.696Z,44.03
2024-02-08T09:50:49.301Z,43.56
2024-02-08T09:53:31.980Z,43.63
2024-02-08T09:56:17.117Z,43.58
2024-02-08T09:59:05.214Z,43.16
2024-02-08T10:01:45.843Z,43.02
2024-02-08T10:04:18.822Z,42.88
2024-02-08T10:06:48.043Z,42.89
2024-02-08T10:09:35.048Z,42.13
2024-02-08T10:12:09.996Z,41.05
2024-02-08T10:14:38.386Z,41.34
2024-02-08T10:17:19.854Z,41.61
2024-02-08T10:20:20.645Z,41.63
2024-02-08T10:22:55.685Z,41.67
2024-02-08T10:25:47.338Z,41.57
2024-02-08T10:28:26.051Z,41.14
2024-02-08T10:31:14.252Z,41.14
2024-02-08T10:33:50.287Z,41.08
2024-02-08T10:36:23.161Z,41.16
2024-02-08T10:38:56.226Z,40.64
2024-02-08T10:41:30.475Z,40.82
2024-02-08T10:44:00.426Z,40.87
2024-02-08T10:46:33.818Z,40.57
2024-02-08T10:49:03.354Z,40.13
2024-02-08T10:51:33.347Z,39.79
2024-02-08T10:54:07.210Z,39.67
2024-02-08T10:56:42.658Z,39.76
2024-02-08T10:59:15.274Z,39.96
2024-02-08T11:01:52.252Z,39.99
2024-02-08T11:04:30.828Z,39.71
2024-02-08T11:07:18.385Z,40.08
2024-02-08T11:09:47.161Z,40.04
2024-02-08T11:12:23.272Z,39.64
2024-02-08T11:14:58.366Z,39.83
2024-02-08T11:17:32.273Z,39.94
2024-02-08T11:20:00.862Z,39.72
2024-02-08T11:22:41.580Z,40.31
2024-02-08T11:25:21.249Z,40.22
2024-02-08T11:27:53.537Z,40.54
2024-02-08T11:30:36.377Z,40.34
2024-02-08T11:33:05.892Z,39.96
2024-02-08T11:35:36.463Z,39.83
2024-02-08T11:40:47.468Z,38.26
2024-02-08T11:43:25.741Z,38.59
2024-02-08T11:45:58.327Z,38.62
2024-02-08T11:48:31.139Z,37.86
2024-02-08T11:51:00.497Z,37.49
2024-02-08T11:53:34.813Z,37.66
2024-02-08T11:56:10.297Z,37.50
2024-02-08T11:58:49.358Z,37.47
2024-02-08T12:01:19.507Z,37.74
2024-02-08T12:03:52.094Z,37.73
2024-02-08T12:06:20.286Z,37.90
2024-02-08T12:09:05.655Z,37.22
2024-02-08T12:11:54.232Z,37.37
2024-02-08T12:14:27.001Z,36.72
2024-02-08T12:16:59.361Z,36.92
2024-02-08T12:19:32.503Z,36.72
2024-02-08T12:22:05.969Z,37.30
2024-02-08T12:24:36.913Z,37.06
2024-02-08T12:27:17.446Z,37.31
2024-02-08T12:29:50.301Z,37.53
2024-02-08T12:32:19.442Z,37.60
2024-02-08T12:34:51.579Z,37.82
2024-02-08T12:37:24.820Z,37.97
2024-02-08T12:39:52.988Z,37.71
2024-02-08T12:42:25.180Z,37.73
2024-02-08T12:44:53.206Z,38.07
2024-02-08T12:47:21.035Z,38.00
2024-02-08T12:49:49.765Z,37.81
2024-02-08T12:52:18.540Z,37.79
2024-02-08T12:54:56.389Z,37.52
2024-02-08T12:57:25.546Z,38.06
2024-02-08T13:00:14.757Z,37.91
2024-02-08T13:02:43.802Z,38.17
2024-02-08T13:05:11.316Z,38.28
2024-02-08T13:07:39.545Z,38.53
2024-02-08T13:10:17.281Z,38.13
2024-02-08T13:12:46.692Z,38.33
2024-02-08T13:15:23.304Z,38.09
2024-02-08T13:17:52.725Z,37.69
2024-02-08T13:20:23.227Z,37.65
2024-02-08T13:22:53.970Z,37.36
2024-02-08T13:25:29.843Z,37.42
2024-02-08T13:28:01.294Z,37.42
2024-02-08T13:30:31.523Z,37.13
2024-02-08T13:32:59.675Z,37.38
2024-02-08T13:35:30.433Z,37.41
2024-02-08T13:37:59.728Z,36.61
2024-02-08T13:40:28.195Z,36.99
2024-02-08T13:42:58.274Z,37.04
2024-02-08T13:45:28.104Z,37.00
2024-02-08T13:47:59.725Z,37.50
2024-02-08T13:50:33.592Z,37.20
2024-02-08T13:53:04.664Z,37.68
2024-02-08T13:58:08.634Z,37.10
2024-02-08T14:00:37.275Z,37.37
2024-02-08T14:03:05.756Z,36.95
2024-02-08T14:05:40.629Z,37.04
2024-02-08T14:08:19.308Z,36.95
2024-02-08T14:10:47.427Z,36.66
2024-02-08T14:13:20.437Z,36.98
2024-02-08T14:15:50.138Z,36.92
2024-02-08T14:18:29.006Z,37.10
2024-02-08T14:21:01.988Z,37.37
2024-02-08T14:23:32.243Z,37.38
2024-02-08T14:26:10.316Z,37.42
2024-02-08T14:28:44.712Z,37.46
2024-02-08T14:31:12.566Z,37.45
2024-02-08T14:33:48.597Z,37.33
2024-02-08T14:36:20.135Z,37.51
2024-02-08T14:38:49.660Z,37.73
2024-02-08T14:41:35.987Z,37.90
2024-02-08T14:44:11.179Z,37.91
2024-02-08T14:46:42.195Z,38.01
2024-02-08T14:49:28.795Z,38.11
2024-02-08T14:52:16.926Z,38.40
2024-02-08T14:54:45.083Z,38.23
2024-02-08T14:57:21.367Z,38.20
2024-02-08T14:59:52.810Z,38.28
2024-02-08T15:02:24.751Z,38.13
2024-02-08T15:05:02.277Z,38.34
2024-02-08T15:07:50.305Z,37.92
2024-02-08T15:10:22.990Z,37.96
2024-02-08T15:12:58.922Z,38.25
2024-02-08T15:15:35.575Z,38.08
2024-02-08T15:18:16.563Z,38.08
2024-02-08T15:20:58.214Z,37.91
2024-02-08T15:23:33.573Z,37.77
2024-02-08T15:26:14.824Z,38.21
2024-02-08T15:28:44.068Z,38.31
2024-02-08T15:31:17.926Z,38.36
2024-02-08T15:34:04.627Z,38.82
2024-02-08T15:36:51.478Z,38.71
2024-02-08T15:39:28.621Z,38.78
2024-02-08T15:42:03.079Z,39.20
2024-02-08T15:44:37.301Z,39.19
2024-02-08T15:47:14.341Z,39.47
2024-02-08T15:49:45.827Z,39.92
2024-02-08T15:52:17.337Z,40.14
2024-02-08T15:54:46.939Z,39.78
2024-02-08T15:57:15.499Z,40.14
2024-02-08T15:59:47.354Z,39.95
2024-02-08T16:02:19.218Z,40.23
2024-02-08T16:04:52.521Z,40.07
2024-02-08T16:07:29.541Z,40.01
2024-02-08T16:10:00.474Z,40.12
2024-02-08T16:12:32.810Z,40.06
2024-02-08T16:15:09.027Z,40.23
2024-02-08T16:17:39.265Z,40.47
2024-02-08T16:20:18.809Z,40.58
2024-02-08T16:23:06.136Z,40.86
2024-02-08T16:25:46.099Z,41.10
2024-02-08T16:28:20.514Z,41.35
2024-02-08T16:30:59.742Z,41.31
2024-02-08T16:33:49.953Z,41.73
2024-02-08T16:36:29.349Z,42.18
2024-02-08T16:39:09.279Z,42.76
2024-02-08T16:41:50.209Z,43.17
2024-02-08T16:44:23.910Z,43.33
2024-02-08T16:46:56.485Z,43.40
2024-02-08T16:49:33.070Z,43.71
2024-02-08T16:52:06.318Z,43.56
2024-02-08T16:54:44.066Z,43.58
2024-02-08T16:57:19.267Z,44.19
2024-02-08T16:59:50.283Z,44.36
2024-02-08T17:02:27.227Z,44.08
2024-02-08T17:05:11.811Z,45.20
2024-02-08T17:07:45.726Z,44.61
2024-02-08T17:10:35.518Z,44.64
2024-02-08T17:13:17.259Z,44.61
2024-02-08T17:16:01.828Z,44.58
2024-02-08T17:18:39.106Z,44.89
2024-02-08T17:21:08.779Z,45.30
2024-02-08T17:23:44.596Z,45.51
2024-02-08T17:26:28.339Z,45.57
2024-02-08T17:29:15.770Z,45.80
2024-02-08T17:31:44.261Z,45.93
2024-02-08T17:34:17.220Z,45.95
2024-02-08T17:36:46.498Z,46.01
2024-02-08T17:39:38.399Z,46.47
2024-02-08T17:42:09.782Z,46.45
2024-02-08T17:44:42.618Z,46.82
2024-02-08T17:47:12.304Z,46.67
2024-02-08T17:49:40.807Z,47.53
2024-02-08T17:52:09.720Z,47.65
2024-02-08T17:54:46.806Z,48.26
2024-02-08T17:57:24.305Z,48.33
2024-02-08T18:00:01.089Z,48.34
2024-02-08T18:02:37.836Z,48.15
2024-02-08T18:05:10.554Z,48.25
2024-02-08T18:07:38.588Z,48.38
2024-02-08T18:10:19.069Z,47.90
2024-02-08T18:12:53.685Z,48.55
2024-02-08T18:15:27.413Z,48.23
2024-02-08T18:17:58.259Z,48.28
2024-02-08T18:20:31.883Z,48.34
2024-02-08T18:23:04.431Z,48.50
2024-02-08T18:25:32.602Z,48.84
2024-02-08T18:28:02.224Z,48.52
2024-02-08T18:30:36.528Z,49.48
2024-02-08T18:33:06.850Z,48.57
2024-02-08T18:35:36.015Z,48.60
2024-02-08T18:38:09.827Z,48.53
2024-02-08T18:40:40.384Z,48.57
2024-02-08T18:43:08.391Z,48.87
2024-02-08T18:45:39.137Z,49.09
2024-02-08T18:48:12.738Z,49.13
2024-02-08T18:50:44.583Z,49.07
2024-02-08T18:53:14.306Z,48.86
2024-02-08T18:55:52.740Z,49.39
2024-02-08T18:58:23.303Z,48.96
2024-02-08T19:00:56.606Z,49.66
2024-02-08T19:03:29.063Z,49.25
2024-02-08T19:06:01.615Z,49.63
2024-02-08T19:08:37.807Z,50.42
2024-02-08T19:11:05.640Z,51.35
2024-02-08T19:13:37.362Z,51.47
2024-02-08T19:16:13.851Z,51.25
2024-02-08T19:18:45.941Z,53.30
2024-02-08T19:21:27.815Z,52.92
2024-02-08T19:23:57.090Z,52.34
2024-02-08T19:26:26.797Z,52.14
2024-02-08T19:28:56.526Z,53.32
2024-02-08T19:31:38.853Z,52.98
2024-02-08T19:34:10.040Z,52.44
2024-02-08T19:36:38.789Z,52.21
2024-02-08T19:39:33.040Z,53.02
2024-02-08T19:42:03.493Z,54.64
2024-02-08T19:44:37.203Z,53.99
2024-02-08T19:47:15.537Z,53.34
2024-02-08T19:49:43.592Z,53.18
2024-02-08T19:52:16.903Z,52.76
2024-02-08T19:54:51.635Z,52.26
2024-02-08T19:57:30.649Z,52.48
2024-02-08T19:59:58.546Z,52.45
2024-02-08T20:02:29.513Z,53.08
2024-02-08T20:05:01.651Z,52.77
2024-02-08T20:07:41.924Z,53.14
2024-02-08T20:10:16.506Z,53.17
2024-02-08T20:12:47.356Z,53.30
2024-02-08T20:15:20.875Z,52.92
2024-02-08T20:17:53.651Z,53.55
2024-02-08T20:20:23.533Z,53.88
2024-02-08T20:22:55.775Z,53.47
2024-02-08T20:25:29.139Z,54.01
2024-02-08T20:28:01.228Z,54.00
2024-02-08T20:30:30.058Z,54.19
2024-02-08T20:33:03.040Z,54.21
2024-02-08T20:35:33.712Z,54.29
2024-02-08T20:38:01.612Z,54.29
2024-02-08T20:40:29.926Z,54.21
2024-02-08T20:43:00.790Z,54.94
2024-02-08T20:45:28.836Z,55.09
2024-02-08T20:47:57.572Z,55.45
2024-02-08T20:50:26.475Z,55.22
2024-02-08T20:52:56.052Z,55.35
2024-02-08T20:55:36.902Z,55.99
2024-02-08T20:58:12.394Z,56.05
2024-02-08T21:00:44.329Z,55.96
2024-02-08T21:03:15.033Z,57.04
2024-02-08T21:05:43.858Z,56.46
2024-02-08T21:08:12.857Z,57.94
2024-02-08T21:11:00.342Z,56.90
2024-02-08T21:13:33.703Z,57.33
2024-02-08T21:16:01.764Z,56.84
2024-02-08T21:18:29.880Z,56.79
2024-02-08T21:20:57.870Z,56.76
2024-02-08T21:23:27.749Z,57.84
2024-02-08T21:26:02.262Z,57.69
2024-02-08T21:28:31.319Z,58.24
2024-02-08T21:30:59.760Z,58.30
2024-02-08T21:33:33.656Z,58.71
2024-02-08T21:36:05.522Z,58.16
2024-02-08T21:38:37.273Z,57.92
2024-02-08T21:41:07.550Z,58.00
2024-02-08T21:43:40.570Z,57.71
2024-02-08T21:46:13.119Z,57.63
2024-02-08T21:48:42.725Z,58.04
2024-02-08T21:51:16.123Z,58.13
2024-02-08T21:53:46.755Z,57.90
2024-02-08T21:56:18.957Z,57.88
2024-02-08T21:58:49.725Z,58.18
2024-02-08T22:01:36.373Z,58.24
2024-02-08T22:04:10.747Z,57.84
2024-02-08T22:06:41.411Z,58.32
2024-02-08T22:09:12.925Z,58.69
2024-02-08T22:11:50.725Z,59.19
2024-02-08T22:14:21.437Z,59.89
2024-02-08T22:16:50.611Z,59.69
2024-02-08T22:19:22.664Z,59.00
2024-02-08T22:21:51.569Z,59.28
2024-02-08T22:24:20.986Z,59.19
2024-02-08T22:26:53.588Z,59.14
2024-02-08T22:29:22.956Z,58.69
2024-02-08T22:31:50.962Z,58.63
2024-02-08T22:34:20.381Z,58.46
2024-02-08T22:36:49.693Z,57.96
2024-02-08T22:39:18.424Z,57.96
2024-02-08T22:41:51.386Z,57.86
2024-02-08T22:44:20.238Z,57.42
2024-02-08T22:46:48.314Z,57.51
2024-02-08T22:49:15.927Z,57.54
2024-02-08T22:51:47.589Z,57.71
2024-02-08T22:54:15.990Z,57.59
2024-02-08T22:56:45.380Z,58.52
2024-02-08T22:59:13.673Z,58.60
2024-02-08T23:01:44.577Z,58.81
2024-02-08T23:04:15.464Z,58.53
2024-02-08T23:06:44.065Z,58.79
2024-02-08T23:09:17.430Z,58.97
2024-02-08T23:11:47.361Z,59.10
2024-02-08T23:14:20.652Z,58.94
2024-02-08T23:16:52.830Z,59.22
2024-02-08T23:19:21.418Z,58.66
2024-02-08T23:21:55.356Z,58.89
2024-02-08T23:24:26.241Z,58.77
2024-02-08T23:26:54.354Z,58.95
2024-02-08T23:29:25.680Z,58.95
2024-02-08T23:31:53.747Z,59.26
2024-02-08T23:34:21.447Z,59.45
2024-02-08T23:36:55.892Z,59.29
2024-02-08T23:39:29.172Z,59.56
2024-02-08T23:41:59.686Z,59.18
2024-02-08T23:44:30.428Z,59.49
2024-02-08T23:46:57.984Z,59.18
2024-02-08T23:49:27.418Z,59.40
2024-02-08T23:51:57.062Z,59.81
2024-02-08T23:54:25.041Z,60.06
2024-02-08T23:56:56.579Z,60.98
2024-02-08T23:59:24.240Z,61.03
